Accueil
METAR-TAF:

METAR-TAF

Aéroports :

Nouakchott, Mauritanie

Aéroport international de Nouakchott-Oumtounsy

latitude: 18-18-36N, longitude: 015-58-11W, altitude: 3 m

Observation

Le bulletin a été fait il y a 46 minutes, à 16:00 UTC
Vent 18 kt de nord-ouest
Température 30°C
Humidité 70%
Pression 1008 hPa
Visibilité: 4500 m
Chasse-sable élevée

METAR: GQNO 221600Z 31018KT 4500 BLSA NSC 30/24 Q1008 NOSIG

Heure: 16:46 (16:46 UTC)

Prévision

Le bulletin a été fait il y a 5 heures et 46 minutes, à 11:00 UTC
Prévision valable du 22 à 12 UTC au 23 à 18 UTC
Vent 14 kt de nord-ouest
Visibilité: 7000 m
Nuages épars à une hauteur de 1000 ft
Probabilité 30% :
Temporairement
du 22 à 15 UTC au 22 à 18 UTC
Visibilité: 4000 m
Chasse-sable élevée

TAF: GQNO 221100Z 2212/2318 31014KT 7000 SCT010 PROB30 TEMPO 2215/2218 4000 BLSA

Observations et prévisions météorologiques de plus de 4000 aéroports (messages METAR et TAF).

Les stations disponibles sont représentées par des disques jaunes et rouges sur la carte.

Passer la souris dessus pour voir le nom de la station.

Cliquer dessus pour voir les observations et prévisions météorologiques.

Pour changer de carte: cliquez sur les boutons verts avec une croix noire pour zoomer, sur le bouton vert avec un tiret pour effectuer un zoom arrière, ou sur les flèches vertes pour les cartes adjacentes.


METAR-TAF: